Time,TemperatureF,DewpointF,PressureIn,WindDirection,WindDirectionDegrees,WindSpeedMPH,WindSpeedGustMPH,Humidity,HourlyPrecipIn,Conditions,Clouds,dailyrainin,SoftwareType,DateUTC
2013-09-30 00:00:00,57.7,47.2,29.92,SSW,202,2.7,-999.0,68,-99.99,,,0.00,Acu-Link.com,2013-09-30 05:00:00,
2013-09-30 00:15:00,57.2,47.5,29.92,ESE,112,1.7,-999.0,70,-99.99,,,0.00,Acu-Link.com,2013-09-30 05:15:00,
2013-09-30 00:30:00,56.7,47.4,29.92,ESE,112,2.7,-999.0,71,-99.99,,,0.00,Acu-Link.com,2013-09-30 05:30:00,
2013-09-30 00:45:00,56.5,47.6,29.91,ESE,112,1.1,-999.0,72,-99.99,,,0.00,Acu-Link.com,2013-09-30 05:45:00,
2013-09-30 01:01:00,55.9,47.4,29.91,ESE,112,2.7,-999.0,73,-99.99,,,0.00,Acu-Link.com,2013-09-30 06:01:00,
2013-09-30 01:16:00,54.9,47.1,29.91,SW,225,1.7,-999.0,75,-99.99,,,0.00,Acu-Link.com,2013-09-30 06:16:00,
2013-09-30 01:31:00,53.8,46.8,29.91,ESE,112,0.0,-999.0,77,-99.99,,,0.00,Acu-Link.com,2013-09-30 06:31:00,
2013-09-30 01:46:00,53.1,46.8,29.91,East,90,1.1,-999.0,79,-99.99,,,0.00,Acu-Link.com,2013-09-30 06:46:00,
2013-09-30 02:15:00,52.3,46.0,29.91,West,270,0.0,-999.0,79,-99.99,,,0.00,Acu-Link.com,2013-09-30 07:15:00,
2013-09-30 02:30:00,51.3,45.7,29.90,WNW,292,2.2,-999.0,81,-99.99,,,0.00,Acu-Link.com,2013-09-30 07:30:00,
2013-09-30 02:45:00,50.9,45.6,29.90,SSE,157,2.2,-999.0,82,-99.99,,,0.00,Acu-Link.com,2013-09-30 07:45:00,
2013-09-30 03:00:00,50.7,45.4,29.90,South,180,0.0,-999.0,82,-99.99,,,0.00,Acu-Link.com,2013-09-30 08:00:00,
2013-09-30 03:16:00,50.5,45.2,29.90,East,90,0.0,-999.0,82,-99.99,,,0.00,Acu-Link.com,2013-09-30 08:16:00,
2013-09-30 03:31:00,50.0,45.0,29.89,SSE,157,0.0,-999.0,83,-99.99,,,0.00,Acu-Link.com,2013-09-30 08:31:00,
2013-09-30 03:47:00,49.6,45.0,29.89,ESE,112,0.0,-999.0,84,-99.99,,,0.00,Acu-Link.com,2013-09-30 08:47:00,
2013-09-30 04:02:00,49.3,45.0,29.89,SE,135,2.2,-999.0,85,-99.99,,,0.00,Acu-Link.com,2013-09-30 09:02:00,
2013-09-30 04:18:00,49.3,45.3,29.88,SSE,157,2.7,-999.0,86,-99.99,,,0.00,Acu-Link.com,2013-09-30 09:18:00,
2013-09-30 04:34:00,49.5,45.5,29.88,ENE,67,2.2,-999.0,86,-99.99,,,0.00,Acu-Link.com,2013-09-30 09:34:00,
2013-09-30 04:49:00,49.8,45.8,29.87,ESE,112,2.2,-999.0,86,-99.99,,,0.00,Acu-Link.com,2013-09-30 09:49:00,
2013-09-30 05:05:00,49.6,45.6,29.88,SSE,157,3.2,-999.0,86,-99.99,,,0.00,Acu-Link.com,2013-09-30 10:05:00,
2013-09-30 05:20:00,49.3,45.3,29.88,SE,135,1.7,-999.0,86,-99.99,,,0.00,Acu-Link.com,2013-09-30 10:20:00,
2013-09-30 05:36:00,49.1,45.4,29.88,South,180,1.1,-999.0,87,-99.99,,,0.00,Acu-Link.com,2013-09-30 10:36:00,
2013-09-30 05:52:00,48.9,45.2,29.88,SE,135,1.1,-999.0,87,-99.99,,,0.00,Acu-Link.com,2013-09-30 10:52:00,
2013-09-30 06:07:00,48.6,45.2,29.88,SSW,202,0.0,-999.0,88,-99.99,,,0.00,Acu-Link.com,2013-09-30 11:07:00,
2013-09-30 06:23:00,48.4,45.0,29.88,ESE,112,0.0,-999.0,88,-99.99,,,0.00,Acu-Link.com,2013-09-30 11:23:00,
2013-09-30 06:38:00,48.0,44.9,29.88,SE,135,0.0,-999.0,89,-99.99,,,0.00,Acu-Link.com,2013-09-30 11:38:00,
2013-09-30 06:55:00,48.2,45.4,29.87,ESE,112,2.7,-999.0,90,-99.99,,,0.00,Acu-Link.com,2013-09-30 11:55:00,
2013-09-30 07:46:00,49.1,46.9,29.87,ESE,112,3.2,-999.0,92,-99.99,,,0.00,Acu-Link.com,2013-09-30 12:46:00,
2013-09-30 08:05:00,50.9,47.8,29.87,ESE,112,3.7,-999.0,89,-99.99,,,0.00,Acu-Link.com,2013-09-30 13:05:00,
2013-09-30 08:23:00,52.3,48.2,29.87,SSE,157,3.7,-999.0,86,-99.99,,,0.00,Acu-Link.com,2013-09-30 13:23:00,
2013-09-30 08:38:00,55.4,50.0,29.87,ENE,67,3.7,-999.0,82,-99.99,,,0.00,Acu-Link.com,2013-09-30 13:38:00,
2013-09-30 08:54:00,55.2,50.1,29.87,ESE,112,2.7,-999.0,83,-99.99,,,0.00,Acu-Link.com,2013-09-30 13:54:00,
2013-09-30 09:09:00,57.0,51.2,29.87,SSW,202,3.7,-999.0,81,-99.99,,,0.00,Acu-Link.com,2013-09-30 14:09:00,
2013-09-30 09:28:00,60.1,52.9,29.86,SSE,157,3.7,-999.0,77,-99.99,,,0.00,Acu-Link.com,2013-09-30 14:28:00,
2013-09-30 09:43:00,61.7,53.7,29.87,SE,135,5.3,-999.0,75,-99.99,,,0.00,Acu-Link.com,2013-09-30 14:43:00,
2013-09-30 10:01:00,63.5,53.5,29.87,South,180,3.7,-999.0,70,-99.99,,,0.00,Acu-Link.com,2013-09-30 15:01:00,
2013-09-30 10:17:00,64.2,53.4,29.86,West,270,3.2,-999.0,68,-99.99,,,0.00,Acu-Link.com,2013-09-30 15:17:00,
2013-09-30 10:34:00,65.1,53.9,29.85,North,0,4.7,-999.0,67,-99.99,,,0.00,Acu-Link.com,2013-09-30 15:34:00,
2013-09-30 10:49:00,66.6,53.6,29.86,ESE,112,4.7,-999.0,63,-99.99,,,0.00,Acu-Link.com,2013-09-30 15:49:00,
2013-09-30 11:49:00,71.1,54.1,29.85,WSW,247,6.8,-999.0,55,-99.99,,,0.00,Acu-Link.com,2013-09-30 16:49:00,
2013-09-30 12:04:00,72.0,54.9,29.84,SE,135,5.8,-999.0,55,-99.99,,,0.00,Acu-Link.com,2013-09-30 17:04:00,
2013-09-30 12:19:00,72.5,54.9,29.84,SW,225,6.3,-999.0,54,-99.99,,,0.00,Acu-Link.com,2013-09-30 17:19:00,
2013-09-30 12:34:00,73.2,54.5,29.82,WNW,292,5.8,-999.0,52,-99.99,,,0.00,Acu-Link.com,2013-09-30 17:34:00,
2013-09-30 12:50:00,74.3,53.9,29.81,ESE,112,7.3,-999.0,49,-99.99,,,0.00,Acu-Link.com,2013-09-30 17:50:00,
2013-09-30 13:05:00,75.7,54.6,29.80,WSW,247,2.7,-999.0,48,-99.99,,,0.00,Acu-Link.com,2013-09-30 18:05:00,
2013-09-30 13:20:00,75.0,53.4,29.79,West,270,6.3,-999.0,47,-99.99,,,0.00,Acu-Link.com,2013-09-30 18:20:00,
2013-09-30 13:35:00,75.6,52.7,29.79,West,270,6.8,-999.0,45,-99.99,,,0.00,Acu-Link.com,2013-09-30 18:35:00,
2013-09-30 13:51:00,76.3,54.0,29.79,WSW,247,4.7,-999.0,46,-99.99,,,0.00,Acu-Link.com,2013-09-30 18:51:00,
2013-09-30 14:06:00,76.6,53.0,29.78,SE,135,4.7,-999.0,44,-99.99,,,0.00,Acu-Link.com,2013-09-30 19:06:00,
2013-09-30 14:21:00,77.5,53.2,29.77,ESE,112,4.7,-999.0,43,-99.99,,,0.00,Acu-Link.com,2013-09-30 19:21:00,
2013-09-30 14:36:00,76.6,51.1,29.77,South,180,7.3,-999.0,41,-99.99,,,0.00,Acu-Link.com,2013-09-30 19:36:00,
2013-09-30 14:51:00,76.8,52.0,29.76,SW,225,7.3,-999.0,42,-99.99,,,0.00,Acu-Link.com,2013-09-30 19:51:00,
2013-09-30 15:07:00,77.0,52.1,29.76,SW,225,2.2,-999.0,42,-99.99,,,0.00,Acu-Link.com,2013-09-30 20:07:00,
2013-09-30 15:22:00,77.7,51.4,29.75,East,90,5.3,-999.0,40,-99.99,,,0.00,Acu-Link.com,2013-09-30 20:22:00,
2013-09-30 15:37:00,77.4,50.5,29.75,WNW,292,5.8,-999.0,39,-99.99,,,0.00,Acu-Link.com,2013-09-30 20:37:00,
2013-09-30 15:53:00,77.9,50.9,29.72,ESE,112,3.7,-999.0,39,-99.99,,,0.00,Acu-Link.com,2013-09-30 20:53:00,
2013-09-30 16:08:00,77.4,50.5,29.73,South,180,7.3,-999.0,39,-99.99,,,0.00,Acu-Link.com,2013-09-30 21:08:00,
2013-09-30 16:24:00,76.6,50.5,29.72,ESE,112,9.4,-999.0,40,-99.99,,,0.00,Acu-Link.com,2013-09-30 21:24:00,
2013-09-30 16:39:00,77.2,50.3,29.72,SE,135,4.7,-999.0,39,-99.99,,,0.00,Acu-Link.com,2013-09-30 21:39:00,
2013-09-30 16:55:00,75.9,49.1,29.71,ESE,112,6.3,-999.0,39,-99.99,,,0.00,Acu-Link.com,2013-09-30 21:55:00,
2013-09-30 17:11:00,76.3,50.2,29.71,South,180,4.2,-999.0,40,-99.99,,,0.00,Acu-Link.com,2013-09-30 22:11:00,
2013-09-30 17:26:00,75.7,49.6,29.71,ESE,112,9.9,-999.0,40,-99.99,,,0.00,Acu-Link.com,2013-09-30 22:26:00,
2013-09-30 17:42:00,75.6,50.2,29.71,West,270,7.3,-999.0,41,-99.99,,,0.00,Acu-Link.com,2013-09-30 22:42:00,
2013-09-30 17:57:00,75.4,49.4,29.71,West,270,3.2,-999.0,40,-99.99,,,0.00,Acu-Link.com,2013-09-30 22:57:00,
2013-09-30 18:12:00,74.5,49.2,29.71,East,90,5.8,-999.0,41,-99.99,,,0.00,Acu-Link.com,2013-09-30 23:12:00,
2013-09-30 18:28:00,73.4,49.5,29.71,ESE,112,5.3,-999.0,43,-99.99,,,0.00,Acu-Link.com,2013-09-30 23:28:00,
2013-09-30 18:44:00,72.1,49.6,29.71,SSE,157,4.2,-999.0,45,-99.99,,,0.00,Acu-Link.com,2013-09-30 23:44:00,
2013-09-30 18:59:00,71.2,49.9,29.71,ESE,112,6.3,-999.0,47,-99.99,,,0.00,Acu-Link.com,2013-09-30 23:59:00,
2013-09-30 19:14:00,70.3,49.7,29.72,SW,225,3.7,-999.0,48,-99.99,,,0.00,Acu-Link.com,2013-10-01 00:14:00,
2013-09-30 19:29:00,69.4,49.9,29.72,SE,135,4.7,-999.0,50,-99.99,,,0.00,Acu-Link.com,2013-10-01 00:29:00,
2013-09-30 19:58:00,68.9,50.5,29.73,ESE,112,2.2,-999.0,52,-99.99,,,0.00,Acu-Link.com,2013-10-01 00:58:00,
2013-09-30 20:17:00,67.3,50.1,29.74,SSE,157,3.2,-999.0,54,-99.99,,,0.00,Acu-Link.com,2013-10-01 01:17:00,
2013-09-30 20:34:00,66.2,50.0,29.74,West,270,3.7,-999.0,56,-99.99,,,0.00,Acu-Link.com,2013-10-01 01:34:00,
2013-09-30 20:50:00,66.4,50.7,29.75,SSE,157,3.2,-999.0,57,-99.99,,,0.00,Acu-Link.com,2013-10-01 01:50:00,
2013-09-30 21:09:00,66.2,51.0,29.75,South,180,1.7,-999.0,58,-99.99,,,0.00,Acu-Link.com,2013-10-01 02:09:00,
2013-09-30 21:25:00,66.2,51.9,29.75,SSE,157,6.3,-999.0,60,-99.99,,,0.00,Acu-Link.com,2013-10-01 02:25:00,
2013-09-30 21:41:00,66.2,53.2,29.75,East,90,5.8,-999.0,63,-99.99,,,0.00,Acu-Link.com,2013-10-01 02:41:00,
2013-09-30 21:56:00,66.0,53.5,29.75,East,90,3.2,-999.0,64,-99.99,,,0.00,Acu-Link.com,2013-10-01 02:56:00,
2013-09-30 22:13:00,65.3,53.6,29.76,SSW,202,2.7,-999.0,66,-99.99,,,0.00,Acu-Link.com,2013-10-01 03:13:00,
2013-09-30 22:29:00,64.8,54.4,29.76,West,270,4.7,-999.0,69,-99.99,,,0.00,Acu-Link.com,2013-10-01 03:29:00,
2013-09-30 22:44:00,64.4,54.8,29.77,SSE,157,8.3,-999.0,71,-99.99,,,0.00,Acu-Link.com,2013-10-01 03:44:00,
2013-09-30 22:59:00,64.0,55.2,29.77,West,270,3.2,-999.0,73,-99.99,,,0.00,Acu-Link.com,2013-10-01 03:59:00,
2013-09-30 23:15:00,63.5,55.4,29.77,West,270,2.7,-999.0,75,-99.99,,,0.00,Acu-Link.com,2013-10-01 04:15:00,
2013-09-30 23:30:00,63.0,55.3,29.77,ESE,112,1.7,-999.0,76,-99.99,,,0.00,Acu-Link.com,2013-10-01 04:30:00,
2013-09-30 23:45:00,62.6,55.6,29.77,SSE,157,3.2,-999.0,78,-99.99,,,0.00,Acu-Link.com,2013-10-01 04:45:00,